sensor_id;sensor_type;location;lat;lon;timestamp;temperature;humidity
61912;DHT22;49973;52.084;5.412;2023-04-25T00:01:05;5.40;99.90
61912;DHT22;49973;52.084;5.412;2023-04-25T00:03:37;5.40;99.90
61912;DHT22;49973;52.084;5.412;2023-04-25T00:06:06;5.40;99.90
61912;DHT22;49973;52.084;5.412;2023-04-25T00:08:35;5.30;99.90
61912;DHT22;49973;52.084;5.412;2023-04-25T00:11:04;5.30;99.90
61912;DHT22;49973;52.084;5.412;2023-04-25T00:13:33;5.30;99.90
61912;DHT22;49973;52.084;5.412;2023-04-25T00:16:01;5.20;99.90
61912;DHT22;49973;52.084;5.412;2023-04-25T00:18:31;5.30;99.90
61912;DHT22;49973;52.084;5.412;2023-04-25T00:21:02;5.30;99.90
61912;DHT22;49973;52.084;5.412;2023-04-25T00:23:33;5.40;99.90
61912;DHT22;49973;52.084;5.412;2023-04-25T00:26:03;5.50;99.90
61912;DHT22;49973;52.084;5.412;2023-04-25T00:28:32;5.60;99.90
61912;DHT22;49973;52.084;5.412;2023-04-25T00:31:00;5.60;99.90
61912;DHT22;49973;52.084;5.412;2023-04-25T00:33:29;5.70;99.90
61912;DHT22;49973;52.084;5.412;2023-04-25T00:35:57;5.70;99.90
61912;DHT22;49973;52.084;5.412;2023-04-25T00:38:28;5.80;99.90
61912;DHT22;49973;52.084;5.412;2023-04-25T00:40:56;5.80;99.90
61912;DHT22;49973;52.084;5.412;2023-04-25T00:43:26;5.90;99.90
61912;DHT22;49973;52.084;5.412;2023-04-25T00:45:55;5.90;99.90
61912;DHT22;49973;52.084;5.412;2023-04-25T00:48:25;6.00;99.90
61912;DHT22;49973;52.084;5.412;2023-04-25T00:50:55;6.00;99.90
61912;DHT22;49973;52.084;5.412;2023-04-25T00:53:26;6.10;99.90
61912;DHT22;49973;52.084;5.412;2023-04-25T00:55:56;6.10;99.90
61912;DHT22;49973;52.084;5.412;2023-04-25T00:58:25;6.10;99.90
61912;DHT22;49973;52.084;5.412;2023-04-25T01:00:55;6.10;99.90
61912;DHT22;49973;52.084;5.412;2023-04-25T01:03:24;6.10;99.90
61912;DHT22;49973;52.084;5.412;2023-04-25T01:05:56;6.10;99.90
61912;DHT22;49973;52.084;5.412;2023-04-25T01:08:24;6.10;99.90
61912;DHT22;49973;52.084;5.412;2023-04-25T01:10:53;6.10;99.90
61912;DHT22;49973;52.084;5.412;2023-04-25T01:13:23;6.10;99.90
61912;DHT22;49973;52.084;5.412;2023-04-25T01:15:52;6.00;99.90
61912;DHT22;49973;52.084;5.412;2023-04-25T01:18:21;6.10;99.90
61912;DHT22;49973;52.084;5.412;2023-04-25T01:20:50;5.90;99.90
61912;DHT22;49973;52.084;5.412;2023-04-25T01:23:22;5.90;99.90
61912;DHT22;49973;52.084;5.412;2023-04-25T01:25:52;5.80;99.90
61912;DHT22;49973;52.084;5.412;2023-04-25T01:28:21;5.80;99.90
61912;DHT22;49973;52.084;5.412;2023-04-25T01:30:51;5.70;99.90
61912;DHT22;49973;52.084;5.412;2023-04-25T01:33:21;5.60;99.90
61912;DHT22;49973;52.084;5.412;2023-04-25T01:35:50;5.60;99.90
61912;DHT22;49973;52.084;5.412;2023-04-25T01:38:21;5.50;99.90
61912;DHT22;49973;52.084;5.412;2023-04-25T01:40:51;5.50;99.90
61912;DHT22;49973;52.084;5.412;2023-04-25T01:43:21;5.50;99.90
61912;DHT22;49973;52.084;5.412;2023-04-25T01:45:50;5.30;99.90
61912;DHT22;49973;52.084;5.412;2023-04-25T01:48:19;5.30;99.90
61912;DHT22;49973;52.084;5.412;2023-04-25T01:50:48;5.20;99.90
61912;DHT22;49973;52.084;5.412;2023-04-25T01:53:17;5.10;99.90
61912;DHT22;49973;52.084;5.412;2023-04-25T01:55:48;5.10;99.90
61912;DHT22;49973;52.084;5.412;2023-04-25T01:58:19;5.00;99.90
61912;DHT22;49973;52.084;5.412;2023-04-25T02:01:11;5.00;99.90
61912;DHT22;49973;52.084;5.412;2023-04-25T02:03:46;4.90;99.90
61912;DHT22;49973;52.084;5.412;2023-04-25T02:06:24;4.80;99.90
61912;DHT22;49973;52.084;5.412;2023-04-25T02:08:56;4.80;99.90
61912;DHT22;49973;52.084;5.412;2023-04-25T02:11:26;4.70;99.90
61912;DHT22;49973;52.084;5.412;2023-04-25T02:14:20;4.70;99.90
61912;DHT22;49973;52.084;5.412;2023-04-25T02:16:56;4.60;99.90
61912;DHT22;49973;52.084;5.412;2023-04-25T02:19:25;4.60;99.90
61912;DHT22;49973;52.084;5.412;2023-04-25T02:21:54;4.60;99.90
61912;DHT22;49973;52.084;5.412;2023-04-25T02:24:24;4.50;99.90
61912;DHT22;49973;52.084;5.412;2023-04-25T02:26:57;4.50;99.90
61912;DHT22;49973;52.084;5.412;2023-04-25T02:29:26;4.50;99.90
61912;DHT22;49973;52.084;5.412;2023-04-25T02:31:55;4.50;99.90
61912;DHT22;49973;52.084;5.412;2023-04-25T02:34:23;4.40;99.90
61912;DHT22;49973;52.084;5.412;2023-04-25T02:36:52;4.40;99.90
61912;DHT22;49973;52.084;5.412;2023-04-25T02:39:20;4.40;99.90
61912;DHT22;49973;52.084;5.412;2023-04-25T02:41:49;4.30;99.90
61912;DHT22;49973;52.084;5.412;2023-04-25T02:44:19;4.30;99.90
61912;DHT22;49973;52.084;5.412;2023-04-25T02:46:48;4.30;99.90
61912;DHT22;49973;52.084;5.412;2023-04-25T02:49:16;4.30;99.90
61912;DHT22;49973;52.084;5.412;2023-04-25T02:51:45;4.30;99.90
61912;DHT22;49973;52.084;5.412;2023-04-25T02:54:14;4.30;99.90
61912;DHT22;49973;52.084;5.412;2023-04-25T02:56:46;4.30;99.90
61912;DHT22;49973;52.084;5.412;2023-04-25T02:59:22;4.30;99.90
61912;DHT22;49973;52.084;5.412;2023-04-25T03:01:50;4.30;99.90
61912;DHT22;49973;52.084;5.412;2023-04-25T03:04:19;4.30;99.90
61912;DHT22;49973;52.084;5.412;2023-04-25T03:06:48;4.30;99.90
61912;DHT22;49973;52.084;5.412;2023-04-25T03:09:17;4.40;99.90
61912;DHT22;49973;52.084;5.412;2023-04-25T03:11:46;4.40;99.90
61912;DHT22;49973;52.084;5.412;2023-04-25T03:14:15;4.40;99.90
61912;DHT22;49973;52.084;5.412;2023-04-25T03:16:45;4.50;99.90
61912;DHT22;49973;52.084;5.412;2023-04-25T03:19:14;4.50;99.90
61912;DHT22;49973;52.084;5.412;2023-04-25T03:21:43;4.50;99.90
61912;DHT22;49973;52.084;5.412;2023-04-25T03:24:12;4.50;99.90
61912;DHT22;49973;52.084;5.412;2023-04-25T03:26:41;4.50;99.90
61912;DHT22;49973;52.084;5.412;2023-04-25T03:29:10;4.50;99.90
61912;DHT22;49973;52.084;5.412;2023-04-25T03:31:40;4.50;99.90
61912;DHT22;49973;52.084;5.412;2023-04-25T03:34:10;4.40;99.90
61912;DHT22;49973;52.084;5.412;2023-04-25T03:36:39;4.40;99.90
61912;DHT22;49973;52.084;5.412;2023-04-25T03:39:08;4.40;99.90
61912;DHT22;49973;52.084;5.412;2023-04-25T03:41:38;4.40;99.90
61912;DHT22;49973;52.084;5.412;2023-04-25T03:44:12;4.50;99.90
61912;DHT22;49973;52.084;5.412;2023-04-25T03:46:41;4.70;99.90
61912;DHT22;49973;52.084;5.412;2023-04-25T03:49:11;4.60;99.90
61912;DHT22;49973;52.084;5.412;2023-04-25T03:52:01;4.50;99.90
61912;DHT22;49973;52.084;5.412;2023-04-25T03:54:35;4.70;99.90
61912;DHT22;49973;52.084;5.412;2023-04-25T03:57:08;4.80;99.90
61912;DHT22;49973;52.084;5.412;2023-04-25T03:59:39;4.80;99.90
61912;DHT22;49973;52.084;5.412;2023-04-25T04:02:10;4.90;99.90
61912;DHT22;49973;52.084;5.412;2023-04-25T04:04:41;5.00;99.90
61912;DHT22;49973;52.084;5.412;2023-04-25T04:07:11;5.00;99.90
61912;DHT22;49973;52.084;5.412;2023-04-25T04:09:42;5.20;99.90
61912;DHT22;49973;52.084;5.412;2023-04-25T04:12:17;5.10;99.90
61912;DHT22;49973;52.084;5.412;2023-04-25T04:14:46;5.10;99.90
61912;DHT22;49973;52.084;5.412;2023-04-25T04:17:14;5.10;99.90
61912;DHT22;49973;52.084;5.412;2023-04-25T04:19:44;5.20;99.90
61912;DHT22;49973;52.084;5.412;2023-04-25T04:22:18;5.20;99.90
61912;DHT22;49973;52.084;5.412;2023-04-25T04:24:48;5.20;99.90
61912;DHT22;49973;52.084;5.412;2023-04-25T04:27:32;5.20;99.90
61912;DHT22;49973;52.084;5.412;2023-04-25T04:30:18;5.20;99.90
61912;DHT22;49973;52.084;5.412;2023-04-25T04:32:59;5.20;99.90
61912;DHT22;49973;52.084;5.412;2023-04-25T04:35:31;5.20;99.90
61912;DHT22;49973;52.084;5.412;2023-04-25T04:38:00;5.20;99.90
61912;DHT22;49973;52.084;5.412;2023-04-25T04:40:33;5.20;99.90
61912;DHT22;49973;52.084;5.412;2023-04-25T04:43:11;5.20;99.90
61912;DHT22;49973;52.084;5.412;2023-04-25T04:46:09;5.20;99.90
61912;DHT22;49973;52.084;5.412;2023-04-25T04:48:55;5.20;99.90
61912;DHT22;49973;52.084;5.412;2023-04-25T04:51:48;5.30;99.90
61912;DHT22;49973;52.084;5.412;2023-04-25T04:54:36;5.40;99.90
61912;DHT22;49973;52.084;5.412;2023-04-25T04:57:14;5.30;99.90
61912;DHT22;49973;52.084;5.412;2023-04-25T05:00:02;5.40;99.90
61912;DHT22;49973;52.084;5.412;2023-04-25T05:03:06;5.40;99.90
61912;DHT22;49973;52.084;5.412;2023-04-25T05:05:42;5.50;99.90
61912;DHT22;49973;52.084;5.412;2023-04-25T05:08:32;5.50;99.90
61912;DHT22;49973;52.084;5.412;2023-04-25T05:11:24;5.60;99.90
61912;DHT22;49973;52.084;5.412;2023-04-25T05:14:22;5.60;99.90
61912;DHT22;49973;52.084;5.412;2023-04-25T05:17:13;5.70;99.90
61912;DHT22;49973;52.084;5.412;2023-04-25T05:20:11;5.70;99.90
61912;DHT22;49973;52.084;5.412;2023-04-25T05:22:53;5.80;99.90
61912;DHT22;49973;52.084;5.412;2023-04-25T05:25:36;5.80;99.90
61912;DHT22;49973;52.084;5.412;2023-04-25T05:28:11;5.80;99.90
61912;DHT22;49973;52.084;5.412;2023-04-25T05:31:09;5.80;99.90
61912;DHT22;49973;52.084;5.412;2023-04-25T05:33:46;5.80;99.90
61912;DHT22;49973;52.084;5.412;2023-04-25T05:36:16;5.80;99.90
61912;DHT22;49973;52.084;5.412;2023-04-25T05:38:45;5.90;99.90
61912;DHT22;49973;52.084;5.412;2023-04-25T05:41:34;6.00;99.90
61912;DHT22;49973;52.084;5.412;2023-04-25T05:44:25;6.10;99.90
61912;DHT22;49973;52.084;5.412;2023-04-25T05:47:18;6.20;99.90
61912;DHT22;49973;52.084;5.412;2023-04-25T05:50:08;6.20;99.90
61912;DHT22;49973;52.084;5.412;2023-04-25T05:52:47;6.30;99.90
61912;DHT22;49973;52.084;5.412;2023-04-25T05:55:45;6.40;99.90
61912;DHT22;49973;52.084;5.412;2023-04-25T05:58:23;6.50;99.90
61912;DHT22;49973;52.084;5.412;2023-04-25T06:00:53;6.80;99.90
61912;DHT22;49973;52.084;5.412;2023-04-25T06:03:23;6.60;99.90
61912;DHT22;49973;52.084;5.412;2023-04-25T06:05:52;6.80;99.90
61912;DHT22;49973;52.084;5.412;2023-04-25T06:08:20;7.00;99.90
61912;DHT22;49973;52.084;5.412;2023-04-25T06:10:49;7.10;99.90
61912;DHT22;49973;52.084;5.412;2023-04-25T06:13:18;7.30;99.90
61912;DHT22;49973;52.084;5.412;2023-04-25T06:15:48;7.30;99.90
61912;DHT22;49973;52.084;5.412;2023-04-25T06:18:17;7.30;99.90
61912;DHT22;49973;52.084;5.412;2023-04-25T06:20:46;7.40;99.90
61912;DHT22;49973;52.084;5.412;2023-04-25T06:23:17;7.50;99.90
61912;DHT22;49973;52.084;5.412;2023-04-25T06:25:51;7.50;99.90
61912;DHT22;49973;52.084;5.412;2023-04-25T06:28:20;7.70;99.90
61912;DHT22;49973;52.084;5.412;2023-04-25T06:30:52;7.80;99.90
61912;DHT22;49973;52.084;5.412;2023-04-25T06:33:20;7.90;99.90
61912;DHT22;49973;52.084;5.412;2023-04-25T06:35:49;8.00;99.90
61912;DHT22;49973;52.084;5.412;2023-04-25T06:38:23;8.10;99.90
61912;DHT22;49973;52.084;5.412;2023-04-25T06:40:52;8.20;99.90
61912;DHT22;49973;52.084;5.412;2023-04-25T06:43:21;8.10;99.90
61912;DHT22;49973;52.084;5.412;2023-04-25T06:46:04;8.30;99.90
61912;DHT22;49973;52.084;5.412;2023-04-25T06:48:40;8.70;99.90
61912;DHT22;49973;52.084;5.412;2023-04-25T06:51:08;9.50;99.90
61912;DHT22;49973;52.084;5.412;2023-04-25T06:53:39;10.70;99.90
61912;DHT22;49973;52.084;5.412;2023-04-25T06:56:12;11.80;99.90
61912;DHT22;49973;52.084;5.412;2023-04-25T06:58:55;12.60;99.90
61912;DHT22;49973;52.084;5.412;2023-04-25T07:01:32;12.70;99.90
61912;DHT22;49973;52.084;5.412;2023-04-25T07:04:04;12.10;99.90
61912;DHT22;49973;52.084;5.412;2023-04-25T07:06:36;11.60;99.90
61912;DHT22;49973;52.084;5.412;2023-04-25T07:09:09;11.00;99.90
61912;DHT22;49973;52.084;5.412;2023-04-25T07:11:39;10.60;99.90
61912;DHT22;49973;52.084;5.412;2023-04-25T07:14:07;10.30;99.90
61912;DHT22;49973;52.084;5.412;2023-04-25T07:16:37;10.20;99.90
61912;DHT22;49973;52.084;5.412;2023-04-25T07:19:06;10.20;99.90
61912;DHT22;49973;52.084;5.412;2023-04-25T07:21:35;10.10;99.90
61912;DHT22;49973;52.084;5.412;2023-04-25T07:24:06;10.00;99.90
61912;DHT22;49973;52.084;5.412;2023-04-25T07:26:39;9.90;99.90
61912;DHT22;49973;52.084;5.412;2023-04-25T07:29:19;10.10;99.90
61912;DHT22;49973;52.084;5.412;2023-04-25T07:31:48;10.90;99.90
61912;DHT22;49973;52.084;5.412;2023-04-25T07:34:19;12.10;99.90
61912;DHT22;49973;52.084;5.412;2023-04-25T07:36:48;13.20;99.90
61912;DHT22;49973;52.084;5.412;2023-04-25T07:39:18;14.20;99.90
61912;DHT22;49973;52.084;5.412;2023-04-25T07:41:46;14.80;99.90
61912;DHT22;49973;52.084;5.412;2023-04-25T07:44:22;14.90;99.90
61912;DHT22;49973;52.084;5.412;2023-04-25T07:46:52;14.70;99.90
61912;DHT22;49973;52.084;5.412;2023-04-25T07:49:20;14.30;99.90
61912;DHT22;49973;52.084;5.412;2023-04-25T07:51:49;13.90;99.90
61912;DHT22;49973;52.084;5.412;2023-04-25T07:54:20;13.50;99.90
61912;DHT22;49973;52.084;5.412;2023-04-25T07:56:59;13.10;99.90
61912;DHT22;49973;52.084;5.412;2023-04-25T07:59:30;12.70;99.90
61912;DHT22;49973;52.084;5.412;2023-04-25T08:02:03;12.30;99.90
61912;DHT22;49973;52.084;5.412;2023-04-25T08:04:31;12.00;99.90
61912;DHT22;49973;52.084;5.412;2023-04-25T08:07:03;11.70;99.90
61912;DHT22;49973;52.084;5.412;2023-04-25T08:09:41;11.40;99.90
61912;DHT22;49973;52.084;5.412;2023-04-25T08:12:16;11.20;99.90
61912;DHT22;49973;52.084;5.412;2023-04-25T08:14:46;11.10;99.90
61912;DHT22;49973;52.084;5.412;2023-04-25T08:17:16;11.10;99.90
61912;DHT22;49973;52.084;5.412;2023-04-25T08:19:45;11.10;99.90
61912;DHT22;49973;52.084;5.412;2023-04-25T08:22:23;11.20;99.90
61912;DHT22;49973;52.084;5.412;2023-04-25T08:25:11;11.30;99.90
61912;DHT22;49973;52.084;5.412;2023-04-25T08:27:40;11.50;99.90
61912;DHT22;49973;52.084;5.412;2023-04-25T08:30:09;11.60;99.90
61912;DHT22;49973;52.084;5.412;2023-04-25T08:32:41;11.70;99.90
61912;DHT22;49973;52.084;5.412;2023-04-25T08:35:40;12.00;99.90
61912;DHT22;49973;52.084;5.412;2023-04-25T08:38:09;12.20;99.90
61912;DHT22;49973;52.084;5.412;2023-04-25T08:40:39;11.90;99.90
61912;DHT22;49973;52.084;5.412;2023-04-25T08:43:18;11.50;99.90
61912;DHT22;49973;52.084;5.412;2023-04-25T08:45:47;11.10;99.90
61912;DHT22;49973;52.084;5.412;2023-04-25T08:48:32;10.80;99.90
61912;DHT22;49973;52.084;5.412;2023-04-25T08:51:07;10.70;99.90
61912;DHT22;49973;52.084;5.412;2023-04-25T08:53:39;10.70;99.90
61912;DHT22;49973;52.084;5.412;2023-04-25T08:56:11;11.00;99.90
61912;DHT22;49973;52.084;5.412;2023-04-25T08:58:41;11.80;99.90
61912;DHT22;49973;52.084;5.412;2023-04-25T09:01:11;12.60;99.90
61912;DHT22;49973;52.084;5.412;2023-04-25T09:03:49;12.90;99.90
61912;DHT22;49973;52.084;5.412;2023-04-25T09:06:19;13.00;99.90
61912;DHT22;49973;52.084;5.412;2023-04-25T09:08:50;13.00;99.90
61912;DHT22;49973;52.084;5.412;2023-04-25T09:11:19;13.10;99.90
61912;DHT22;49973;52.084;5.412;2023-04-25T09:14:10;13.00;99.90
61912;DHT22;49973;52.084;5.412;2023-04-25T09:17:03;12.70;99.90
61912;DHT22;49973;52.084;5.412;2023-04-25T09:19:42;12.70;99.90
61912;DHT22;49973;52.084;5.412;2023-04-25T09:22:21;13.00;99.90
61912;DHT22;49973;52.084;5.412;2023-04-25T09:24:50;13.50;99.90
61912;DHT22;49973;52.084;5.412;2023-04-25T09:27:22;14.50;99.90
61912;DHT22;49973;52.084;5.412;2023-04-25T09:30:00;15.00;99.90
61912;DHT22;49973;52.084;5.412;2023-04-25T09:32:44;15.10;99.90
61912;DHT22;49973;52.084;5.412;2023-04-25T09:35:23;14.80;99.90
61912;DHT22;49973;52.084;5.412;2023-04-25T09:37:54;14.20;99.90
61912;DHT22;49973;52.084;5.412;2023-04-25T09:40:46;13.80;99.90
61912;DHT22;49973;52.084;5.412;2023-04-25T09:43:25;13.40;99.90
61912;DHT22;49973;52.084;5.412;2023-04-25T09:45:54;13.00;99.90
61912;DHT22;49973;52.084;5.412;2023-04-25T09:48:28;12.70;99.90
61912;DHT22;49973;52.084;5.412;2023-04-25T09:51:07;12.50;99.90
61912;DHT22;49973;52.084;5.412;2023-04-25T09:53:39;12.20;99.90
61912;DHT22;49973;52.084;5.412;2023-04-25T09:56:35;11.90;99.90
61912;DHT22;49973;52.084;5.412;2023-04-25T09:59:07;11.60;99.90
61912;DHT22;49973;52.084;5.412;2023-04-25T10:01:40;11.30;99.90
61912;DHT22;49973;52.084;5.412;2023-04-25T10:04:18;11.10;99.90
61912;DHT22;49973;52.084;5.412;2023-04-25T10:07:25;11.10;99.90
61912;DHT22;49973;52.084;5.412;2023-04-25T10:09:59;10.80;99.90
61912;DHT22;49973;52.084;5.412;2023-04-25T10:12:29;10.70;99.90
61912;DHT22;49973;52.084;5.412;2023-04-25T10:14:58;10.50;99.90
61912;DHT22;49973;52.084;5.412;2023-04-25T10:17:27;10.40;99.90
61912;DHT22;49973;52.084;5.412;2023-04-25T10:19:56;10.40;99.90
61912;DHT22;49973;52.084;5.412;2023-04-25T10:22:31;10.50;99.90
61912;DHT22;49973;52.084;5.412;2023-04-25T10:25:01;10.60;99.90
61912;DHT22;49973;52.084;5.412;2023-04-25T10:27:31;10.90;99.90
61912;DHT22;49973;52.084;5.412;2023-04-25T10:30:01;11.30;99.90
61912;DHT22;49973;52.084;5.412;2023-04-25T10:32:32;11.70;99.90
61912;DHT22;49973;52.084;5.412;2023-04-25T10:35:11;11.90;99.90
61912;DHT22;49973;52.084;5.412;2023-04-25T10:37:57;12.10;99.90
61912;DHT22;49973;52.084;5.412;2023-04-25T10:40:26;12.10;99.90
61912;DHT22;49973;52.084;5.412;2023-04-25T10:42:55;12.10;99.90
61912;DHT22;49973;52.084;5.412;2023-04-25T10:45:24;12.10;99.90
61912;DHT22;49973;52.084;5.412;2023-04-25T10:47:54;12.10;99.90
61912;DHT22;49973;52.084;5.412;2023-04-25T10:50:37;12.30;99.90
61912;DHT22;49973;52.084;5.412;2023-04-25T10:53:15;12.70;99.90
61912;DHT22;49973;52.084;5.412;2023-04-25T10:55:50;13.20;99.90
61912;DHT22;49973;52.084;5.412;2023-04-25T10:58:22;13.70;99.90
61912;DHT22;49973;52.084;5.412;2023-04-25T11:00:50;14.20;99.90
61912;DHT22;49973;52.084;5.412;2023-04-25T11:03:24;14.60;99.90
61912;DHT22;49973;52.084;5.412;2023-04-25T11:05:53;14.60;99.90
61912;DHT22;49973;52.084;5.412;2023-04-25T11:08:36;14.40;99.90
61912;DHT22;49973;52.084;5.412;2023-04-25T11:11:10;14.00;99.90
61912;DHT22;49973;52.084;5.412;2023-04-25T11:13:38;13.80;99.90
61912;DHT22;49973;52.084;5.412;2023-04-25T11:16:07;13.60;99.90
61912;DHT22;49973;52.084;5.412;2023-04-25T11:18:41;13.60;99.90
61912;DHT22;49973;52.084;5.412;2023-04-25T11:21:10;13.50;99.90
61912;DHT22;49973;52.084;5.412;2023-04-25T11:23:40;13.10;99.90
61912;DHT22;49973;52.084;5.412;2023-04-25T11:26:09;12.60;99.90
61912;DHT22;49973;52.084;5.412;2023-04-25T11:28:38;12.00;99.90
61912;DHT22;49973;52.084;5.412;2023-04-25T11:31:06;11.70;99.90
61912;DHT22;49973;52.084;5.412;2023-04-25T11:33:37;11.50;99.90
61912;DHT22;49973;52.084;5.412;2023-04-25T11:36:06;11.50;99.90
61912;DHT22;49973;52.084;5.412;2023-04-25T11:38:34;12.00;99.90
61912;DHT22;49973;52.084;5.412;2023-04-25T11:41:04;12.60;99.90
61912;DHT22;49973;52.084;5.412;2023-04-25T11:43:33;12.90;99.90
61912;DHT22;49973;52.084;5.412;2023-04-25T11:46:06;13.00;99.90
61912;DHT22;49973;52.084;5.412;2023-04-25T11:48:38;12.70;99.90
61912;DHT22;49973;52.084;5.412;2023-04-25T11:51:07;12.50;99.90
61912;DHT22;49973;52.084;5.412;2023-04-25T11:53:36;12.20;99.90
61912;DHT22;49973;52.084;5.412;2023-04-25T11:56:10;12.00;99.90
61912;DHT22;49973;52.084;5.412;2023-04-25T11:58:59;11.90;99.90
61912;DHT22;49973;52.084;5.412;2023-04-25T12:01:29;11.80;99.90
61912;DHT22;49973;52.084;5.412;2023-04-25T12:04:12;12.00;99.90
61912;DHT22;49973;52.084;5.412;2023-04-25T12:06:42;12.60;99.90
61912;DHT22;49973;52.084;5.412;2023-04-25T12:09:14;13.50;99.90
61912;DHT22;49973;52.084;5.412;2023-04-25T12:11:47;14.30;99.90
61912;DHT22;49973;52.084;5.412;2023-04-25T12:14:24;15.00;99.90
61912;DHT22;49973;52.084;5.412;2023-04-25T12:16:55;15.80;99.90
61912;DHT22;49973;52.084;5.412;2023-04-25T12:19:25;16.30;99.90
61912;DHT22;49973;52.084;5.412;2023-04-25T12:21:54;16.10;99.90
61912;DHT22;49973;52.084;5.412;2023-04-25T12:24:26;15.50;99.90
61912;DHT22;49973;52.084;5.412;2023-04-25T12:27:01;14.50;99.90
61912;DHT22;49973;52.084;5.412;2023-04-25T12:29:31;13.70;99.90
61912;DHT22;49973;52.084;5.412;2023-04-25T12:32:15;13.30;99.90
61912;DHT22;49973;52.084;5.412;2023-04-25T12:34:45;13.10;99.90
61912;DHT22;49973;52.084;5.412;2023-04-25T12:37:14;12.80;99.90
61912;DHT22;49973;52.084;5.412;2023-04-25T12:39:43;13.10;99.90
61912;DHT22;49973;52.084;5.412;2023-04-25T12:42:13;13.20;99.90
61912;DHT22;49973;52.084;5.412;2023-04-25T12:44:41;13.30;99.90
61912;DHT22;49973;52.084;5.412;2023-04-25T12:47:10;13.20;99.90
61912;DHT22;49973;52.084;5.412;2023-04-25T12:49:39;13.20;99.90
61912;DHT22;49973;52.084;5.412;2023-04-25T12:52:07;13.10;99.90
61912;DHT22;49973;52.084;5.412;2023-04-25T12:54:37;13.00;99.90
61912;DHT22;49973;52.084;5.412;2023-04-25T12:57:06;12.90;99.90
61912;DHT22;49973;52.084;5.412;2023-04-25T12:59:36;12.50;99.90
61912;DHT22;49973;52.084;5.412;2023-04-25T13:02:04;12.40;99.90
61912;DHT22;49973;52.084;5.412;2023-04-25T13:04:33;12.30;99.90
61912;DHT22;49973;52.084;5.412;2023-04-25T13:07:02;12.40;99.90
61912;DHT22;49973;52.084;5.412;2023-04-25T13:09:31;12.60;99.90
61912;DHT22;49973;52.084;5.412;2023-04-25T13:11:59;12.80;99.90
61912;DHT22;49973;52.084;5.412;2023-04-25T13:14:28;13.20;99.90
61912;DHT22;49973;52.084;5.412;2023-04-25T13:16:59;13.40;99.90
61912;DHT22;49973;52.084;5.412;2023-04-25T13:19:27;13.80;99.90
61912;DHT22;49973;52.084;5.412;2023-04-25T13:21:56;14.30;99.90
61912;DHT22;49973;52.084;5.412;2023-04-25T13:24:26;14.40;99.90
61912;DHT22;49973;52.084;5.412;2023-04-25T13:26:55;14.50;99.90
61912;DHT22;49973;52.084;5.412;2023-04-25T13:29:24;14.10;99.90
61912;DHT22;49973;52.084;5.412;2023-04-25T13:31:52;13.60;99.90
61912;DHT22;49973;52.084;5.412;2023-04-25T13:34:22;13.00;99.90
61912;DHT22;49973;52.084;5.412;2023-04-25T13:36:51;12.50;99.90
61912;DHT22;49973;52.084;5.412;2023-04-25T13:39:20;12.10;99.90
61912;DHT22;49973;52.084;5.412;2023-04-25T13:41:48;12.10;99.90
61912;DHT22;49973;52.084;5.412;2023-04-25T13:44:17;12.80;99.90
61912;DHT22;49973;52.084;5.412;2023-04-25T13:46:45;13.60;99.90
61912;DHT22;49973;52.084;5.412;2023-04-25T13:49:14;14.80;99.90
61912;DHT22;49973;52.084;5.412;2023-04-25T13:51:44;15.50;99.90
61912;DHT22;49973;52.084;5.412;2023-04-25T13:54:13;16.10;99.90
61912;DHT22;49973;52.084;5.412;2023-04-25T13:56:42;16.80;99.90
61912;DHT22;49973;52.084;5.412;2023-04-25T13:59:10;16.70;99.90
61912;DHT22;49973;52.084;5.412;2023-04-25T14:01:39;15.90;99.90
61912;DHT22;49973;52.084;5.412;2023-04-25T14:04:08;15.00;99.90
61912;DHT22;49973;52.084;5.412;2023-04-25T14:06:37;14.20;99.90
61912;DHT22;49973;52.084;5.412;2023-04-25T14:09:07;13.80;99.90
61912;DHT22;49973;52.084;5.412;2023-04-25T14:11:37;14.00;99.90
61912;DHT22;49973;52.084;5.412;2023-04-25T14:14:06;14.20;99.90
61912;DHT22;49973;52.084;5.412;2023-04-25T14:16:35;14.20;99.90
61912;DHT22;49973;52.084;5.412;2023-04-25T14:19:03;14.00;99.90
61912;DHT22;49973;52.084;5.412;2023-04-25T14:21:32;14.40;99.90
61912;DHT22;49973;52.084;5.412;2023-04-25T14:24:01;14.60;99.90
61912;DHT22;49973;52.084;5.412;2023-04-25T14:26:31;14.20;99.90
61912;DHT22;49973;52.084;5.412;2023-04-25T14:28:59;13.70;99.90
61912;DHT22;49973;52.084;5.412;2023-04-25T14:31:28;13.20;99.90
61912;DHT22;49973;52.084;5.412;2023-04-25T14:33:57;12.70;99.90
61912;DHT22;49973;52.084;5.412;2023-04-25T14:36:26;12.30;99.90
61912;DHT22;49973;52.084;5.412;2023-04-25T14:38:56;12.00;99.90
61912;DHT22;49973;52.084;5.412;2023-04-25T14:41:25;11.80;99.90
61912;DHT22;49973;52.084;5.412;2023-04-25T14:43:55;11.50;99.90
61912;DHT22;49973;52.084;5.412;2023-04-25T14:46:25;11.60;99.90
61912;DHT22;49973;52.084;5.412;2023-04-25T14:48:54;11.90;99.90
61912;DHT22;49973;52.084;5.412;2023-04-25T14:51:23;12.60;99.90
61912;DHT22;49973;52.084;5.412;2023-04-25T14:53:53;13.20;99.90
61912;DHT22;49973;52.084;5.412;2023-04-25T14:56:22;13.80;99.90
61912;DHT22;49973;52.084;5.412;2023-04-25T14:58:51;13.90;99.90
61912;DHT22;49973;52.084;5.412;2023-04-25T15:01:21;13.80;99.90
61912;DHT22;49973;52.084;5.412;2023-04-25T15:03:50;13.40;99.90
61912;DHT22;49973;52.084;5.412;2023-04-25T15:06:20;13.10;99.90
61912;DHT22;49973;52.084;5.412;2023-04-25T15:08:48;12.70;99.90
61912;DHT22;49973;52.084;5.412;2023-04-25T15:11:18;12.40;99.90
61912;DHT22;49973;52.084;5.412;2023-04-25T15:13:47;12.20;99.90
61912;DHT22;49973;52.084;5.412;2023-04-25T15:16:17;11.90;99.90
61912;DHT22;49973;52.084;5.412;2023-04-25T15:18:47;11.70;99.90
61912;DHT22;49973;52.084;5.412;2023-04-25T15:21:16;11.50;99.90
61912;DHT22;49973;52.084;5.412;2023-04-25T15:23:45;11.50;99.90
61912;DHT22;49973;52.084;5.412;2023-04-25T15:26:13;11.80;99.90
61912;DHT22;49973;52.084;5.412;2023-04-25T15:28:42;12.30;99.90
61912;DHT22;49973;52.084;5.412;2023-04-25T15:31:11;12.80;99.90
61912;DHT22;49973;52.084;5.412;2023-04-25T15:33:40;13.10;99.90
61912;DHT22;49973;52.084;5.412;2023-04-25T15:36:10;13.40;99.90
61912;DHT22;49973;52.084;5.412;2023-04-25T15:38:38;13.40;99.90
61912;DHT22;49973;52.084;5.412;2023-04-25T15:41:08;13.10;99.90
61912;DHT22;49973;52.084;5.412;2023-04-25T15:43:36;12.90;99.90
61912;DHT22;49973;52.084;5.412;2023-04-25T15:46:05;12.40;99.90
61912;DHT22;49973;52.084;5.412;2023-04-25T15:48:34;12.30;99.90
61912;DHT22;49973;52.084;5.412;2023-04-25T15:51:02;12.10;99.90
61912;DHT22;49973;52.084;5.412;2023-04-25T15:53:33;11.90;99.90
61912;DHT22;49973;52.084;5.412;2023-04-25T15:56:02;11.70;99.90
61912;DHT22;49973;52.084;5.412;2023-04-25T15:58:31;11.50;99.90
61912;DHT22;49973;52.084;5.412;2023-04-25T16:01:00;11.40;99.90
61912;DHT22;49973;52.084;5.412;2023-04-25T16:03:31;11.60;99.90
61912;DHT22;49973;52.084;5.412;2023-04-25T16:06:03;11.90;99.90
61912;DHT22;49973;52.084;5.412;2023-04-25T16:08:33;12.00;99.90
61912;DHT22;49973;52.084;5.412;2023-04-25T16:11:02;12.00;99.90